AirBox status report


DeploymentNumber of DevicesDetailAvg. TemperatureAvg. HumidityAvg. PM2.5Version
1 Edimax AirBox (Taipei) 21.94% (34/155) [HTML] [JSON] [Dataset A]21.29℃ 95.94% 34.24 μg/m3 2018-02-23T04:51:33Z
2 Edimax AirBox (New Taipei) 31.21% (93/298) [HTML] [JSON] [Dataset B]20.09℃ 90.87% 31.77 μg/m3 2018-02-23T04:51:33Z
3 Edimax AirBox (Taoyuan) 37.87% (89/235) [HTML] [JSON] [Dataset A]21.22℃ 75.48% 33.34 μg/m3 2018-02-23T04:51:33Z
4 Edimax AirBox (Taichung) 70.69% (164/232) [HTML] [JSON] [Dataset B]23.81℃ 84.1% 35.13 μg/m3 2018-02-23T04:51:33Z
5 Edimax AirBox (Tainan) 58.88% (126/214) [HTML] [JSON] [Dataset B]24.85℃ 92.04% 45.02 μg/m3 2018-02-23T04:51:33Z
6 Edimax AirBox (Kaohsiung) 61.98% (150/242) [HTML] [JSON] [Dataset B]26.28℃ 86.11% 44.05 μg/m3 2018-02-23T04:51:33Z
7 Edimax AirBox (LASS) 13.51% (10/74) [HTML] [JSON] [Dataset A]26.46℃ 74.2% 34.2 μg/m3 2018-02-23T04:51:34Z
8 Edimax AirBox (TaichungZero) 57.43% (85/148) [HTML] [JSON] [Dataset A]25.5℃ 77.53% 34.07 μg/m3 2018-02-23T04:51:34Z
9 Edimax AirBox (TaoyuanFirst) 62.96% (17/27) [HTML] [JSON] [Dataset A]22.02℃ 77.76% 28.82 μg/m3 2018-02-23T04:51:34Z
10 Edimax AirBox (other) 100% (662/662) [HTML] [JSON] [Dataset A]20.87℃ 61% 23 μg/m3 2018-02-23T04:51:34Z
11 LASS AirBox (Hsinchu) 42% (21/50) [HTML] [JSON] [Dataset A]22.32℃ 70.95% 31.76 μg/m3 2018-02-23T04:51:33Z
12 LASS AirBox (Yunlin) 44.56% (86/193) [HTML] [JSON] [Dataset A]24.14℃ 76.86% 48.53 μg/m3 2018-02-23T04:51:34Z
13 LASS AirBox (Chiayi) 49.02% (25/51) [HTML] [JSON] [Dataset A]24.85℃ 72.84% 58.04 μg/m3 2018-02-23T04:51:34Z
14 LASS AirBox (Chiayi County) 34.44% (62/180) [HTML] [JSON] [Dataset A]23.34℃ 68.32% 45.24 μg/m3 2018-02-23T04:51:34Z
15 LASS AirBox (Kinmen) 37.5% (9/24) [HTML] [JSON] [Dataset A]20.15℃ 60.67% 34.33 μg/m3 2018-02-23T04:51:34Z
16 LASS (LASS FT) 100% (94/94) [HTML] [JSON] [Dataset C]20.66℃ 58.72% 35.12 μg/m3 2018-02-23T04:51:34Z
17 LASS (LASS4U) 100% (80/80) [HTML] [JSON] [Dataset D]21.08℃ 65.07% 30.56 μg/m3 2018-02-23T04:51:34Z
18 MAPS (LoRa) 0% (0/5) [HTML] [JSON] [Dataset E]0℃ 0% 0 μg/m3 2018-02-23T04:51:34Z
19 MAPS (WiFi) 8.05% (7/87) [HTML] [JSON] [Dataset E]-54.32℃ 32.08% 36 μg/m3 2018-02-23T04:51:34Z
20 MAPS (other) NAN% (0/0) [HTML] [JSON] [Dataset E]0℃ 0% 0 μg/m3 2018-02-23T04:51:34Z
21 EEVEE 100% (20/20) [HTML] [JSON] [Dataset F]17.31℃ 72.6% 46.15 μg/m3 2018-02-23T04:51:34Z
22 *Asus AirBox 100% (79/79) [HTML] [JSON] [Dataset G]21.7℃ 81.64% 39.62 μg/m3 2018-02-23T04:51:34Z
23 *gov Indie NAN% (0/0) [HTML] [JSON] [Dataset H]0℃ 0% 0 μg/m3 2018-02-23T04:51:34Z
24 *ProbeCube 100% (4/4) [HTML] [JSON] [Dataset I]22.03℃ 48% 31.5 μg/m3 2018-02-23T04:51:34Z
25 Total 60.78% (1917/3154)

Resource:

Note: